Time;durP1;ratioP1;P1;durP2;ratioP2;P2;SDS_P1;SDS_P2;PMS_P1;PMS_P2;Temp;Humidity;BMP_temperature;BMP_pressure;BME280_temperature;BME280_humidity;BME280_pressure;Samples;Min_cycle;Max_cycle;Signal;HPM_P1;HPM_P2
2021/09/06 00:01:04;;;;;;;0.50;0.50;;;15.30;99.90;;;;;;4416448;32;20061;-78
2021/09/06 00:03:30;;;;;;;0.40;0.40;;;15.30;99.90;;;;;;4415975;32;20069;-78
2021/09/06 00:05:57;;;;;;;0.30;0.30;;;15.30;99.90;;;;;;4416242;32;20140;-78
2021/09/06 00:08:23;;;;;;;0.37;0.37;;;15.30;99.90;;;;;;4417387;32;20475;-78
2021/09/06 00:11:01;;;;;;;1.52;0.70;;;15.30;99.90;;;;;;4402298;32;20556;-78
2021/09/06 00:13:27;;;;;;;0.43;0.43;;;15.20;99.90;;;;;;4415446;32;20077;-78
2021/09/06 00:15:52;;;;;;;0.40;0.40;;;15.20;99.90;;;;;;4416234;32;20062;-78
2021/09/06 00:18:18;;;;;;;0.30;0.30;;;15.20;99.90;;;;;;4416557;32;20153;-78
2021/09/06 00:20:43;;;;;;;5.97;1.35;;;15.20;99.90;;;;;;4415954;32;20424;-78
2021/09/06 00:23:10;;;;;;;1.33;0.77;;;15.20;99.90;;;;;;4417289;32;20105;-78
2021/09/06 00:25:36;;;;;;;0.40;0.40;;;15.20;99.90;;;;;;4415796;32;20121;-77
2021/09/06 00:28:02;;;;;;;0.85;0.62;;;15.00;99.90;;;;;;4423498;32;20082;-78
2021/09/06 00:30:27;;;;;;;0.80;0.40;;;15.10;99.90;;;;;;4430709;32;20064;-78
2021/09/06 00:32:53;;;;;;;1.33;0.60;;;15.20;99.90;;;;;;4431275;32;20123;-78
2021/09/06 00:35:19;;;;;;;1.65;0.70;;;15.20;99.90;;;;;;4426510;32;20066;-78
2021/09/06 00:37:44;;;;;;;0.80;0.80;;;15.10;99.90;;;;;;4416017;32;20070;-78
2021/09/06 00:40:10;;;;;;;0.47;0.47;;;15.00;99.90;;;;;;4416327;32;20061;-78
2021/09/06 00:42:36;;;;;;;0.50;0.50;;;14.90;99.90;;;;;;4414868;32;20086;-77
2021/09/06 00:45:02;;;;;;;0.30;0.30;;;14.90;99.90;;;;;;4416242;32;20111;-79
2021/09/06 00:47:27;;;;;;;0.40;0.40;;;14.90;99.90;;;;;;4415511;32;20082;-78
2021/09/06 00:49:53;;;;;;;0.30;0.30;;;14.90;99.90;;;;;;4415376;32;20078;-78
2021/09/06 00:52:18;;;;;;;0.40;0.40;;;14.80;99.90;;;;;;4415678;32;20614;-78
2021/09/06 00:54:44;;;;;;;1.27;0.57;;;14.90;99.90;;;;;;4415698;32;20539;-78
2021/09/06 00:57:09;;;;;;;0.40;0.40;;;14.80;99.90;;;;;;4416082;32;20519;-78
2021/09/06 00:59:35;;;;;;;0.40;0.40;;;14.80;99.90;;;;;;4430868;32;20069;-77
2021/09/06 01:02:00;;;;;;;0.50;0.50;;;14.80;99.90;;;;;;4430831;32;20061;-77
2021/09/06 01:04:27;;;;;;;0.65;0.65;;;14.70;99.90;;;;;;4430877;32;20116;-78
2021/09/06 01:06:52;;;;;;;0.50;0.50;;;14.70;99.90;;;;;;4430832;32;20561;-77
2021/09/06 01:09:18;;;;;;;0.50;0.50;;;14.70;99.90;;;;;;4431210;32;20105;-77
2021/09/06 01:11:43;;;;;;;0.40;0.40;;;14.70;99.90;;;;;;4430969;32;20514;-77
2021/09/06 01:14:09;;;;;;;0.40;0.40;;;14.60;99.90;;;;;;4431234;32;20177;-77
2021/09/06 01:16:35;;;;;;;1.70;0.70;;;14.60;99.90;;;;;;4418760;32;20082;-77
2021/09/06 01:19:00;;;;;;;0.32;0.32;;;14.70;99.90;;;;;;4415563;32;20077;-77
2021/09/06 01:21:26;;;;;;;0.50;0.50;;;14.50;99.90;;;;;;4415344;32;20061;-77
2021/09/06 01:23:51;;;;;;;0.50;0.50;;;14.50;99.90;;;;;;4416248;32;20090;-77
2021/09/06 01:26:17;;;;;;;0.50;0.50;;;14.50;99.90;;;;;;4415188;32;20120;-77
2021/09/06 01:28:42;;;;;;;0.70;0.70;;;14.50;99.90;;;;;;4414817;32;20073;-78
2021/09/06 01:31:07;;;;;;;0.82;0.60;;;14.40;99.90;;;;;;4414454;32;20081;-77
2021/09/06 01:33:33;;;;;;;0.70;0.50;;;14.30;99.90;;;;;;4415201;32;20074;-78
2021/09/06 01:35:58;;;;;;;0.60;0.60;;;14.30;99.90;;;;;;4414832;32;20427;-78
2021/09/06 01:38:24;;;;;;;0.30;0.30;;;14.20;99.90;;;;;;4414945;32;20069;-77
2021/09/06 01:40:49;;;;;;;0.43;0.40;;;14.20;99.90;;;;;;4416741;32;20073;-78
2021/09/06 01:43:15;;;;;;;0.45;0.45;;;14.20;99.90;;;;;;4414719;32;20062;-77
2021/09/06 01:45:40;;;;;;;1.00;0.60;;;14.20;99.90;;;;;;4414443;32;20094;-77
2021/09/06 01:48:06;;;;;;;0.35;0.35;;;14.10;99.90;;;;;;4415415;32;20078;-78
2021/09/06 01:50:32;;;;;;;2.75;1.12;;;14.10;99.90;;;;;;4415663;32;20082;-78
2021/09/06 01:52:57;;;;;;;0.40;0.40;;;14.00;99.90;;;;;;4415471;32;20083;-78
2021/09/06 01:55:23;;;;;;;0.60;0.60;;;13.90;99.90;;;;;;4415447;32;20077;-78
2021/09/06 01:57:48;;;;;;;1.30;0.93;;;13.90;99.90;;;;;;4415612;32;20120;-78
2021/09/06 02:00:14;;;;;;;0.60;0.60;;;13.90;99.90;;;;;;4415791;32;20077;-78
2021/09/06 02:02:40;;;;;;;0.90;0.77;;;13.80;99.90;;;;;;4415302;32;20069;-78
2021/09/06 02:05:06;;;;;;;0.57;0.57;;;13.80;99.90;;;;;;4415353;32;20078;-78
2021/09/06 02:07:31;;;;;;;0.50;0.50;;;13.80;99.90;;;;;;4414624;32;20090;-78
2021/09/06 02:09:57;;;;;;;0.37;0.37;;;13.70;99.90;;;;;;4415012;32;20061;-77
2021/09/06 02:12:22;;;;;;;0.35;0.35;;;13.70;99.90;;;;;;4417522;32;20482;-77
2021/09/06 02:14:48;;;;;;;0.30;0.30;;;13.70;99.90;;;;;;4430248;32;20086;-78
2021/09/06 02:17:13;;;;;;;0.50;0.45;;;13.70;99.90;;;;;;4430177;32;20072;-78
2021/09/06 02:19:39;;;;;;;0.40;0.40;;;13.70;99.90;;;;;;4431495;32;20057;-78
2021/09/06 02:22:04;;;;;;;0.40;0.40;;;13.70;99.90;;;;;;4429890;32;20139;-78
2021/09/06 02:24:30;;;;;;;0.37;0.37;;;13.70;99.90;;;;;;4431256;32;20069;-78
2021/09/06 02:26:55;;;;;;;0.40;0.40;;;13.60;99.90;;;;;;4430252;32;20128;-78
2021/09/06 02:29:21;;;;;;;0.55;0.50;;;13.50;99.90;;;;;;4429141;32;20526;-77
2021/09/06 02:31:46;;;;;;;0.52;0.52;;;13.40;99.90;;;;;;4430330;32;20073;-77
2021/09/06 02:34:12;;;;;;;0.30;0.30;;;13.40;99.90;;;;;;4429582;32;20121;-77
2021/09/06 02:36:37;;;;;;;0.35;0.35;;;13.40;99.90;;;;;;4415729;32;20393;-78
2021/09/06 02:39:04;;;;;;;9.43;0.52;;;13.40;99.90;;;;;;4414483;32;20065;-77
2021/09/06 02:41:31;;;;;;;2.20;1.25;;;13.40;99.90;;;;;;4414529;32;20070;-79
2021/09/06 02:43:56;;;;;;;0.40;0.40;;;13.40;99.90;;;;;;4413642;32;20062;-77
2021/09/06 02:46:22;;;;;;;0.50;0.50;;;13.30;99.90;;;;;;4414401;32;20065;-78
2021/09/06 02:48:48;;;;;;;0.40;0.40;;;13.30;99.90;;;;;;4414781;32;20069;-77
2021/09/06 02:51:13;;;;;;;0.45;0.45;;;13.30;99.90;;;;;;4413966;32;20495;-78
2021/09/06 02:53:39;;;;;;;0.60;0.60;;;13.20;99.90;;;;;;4414094;32;20081;-78
2021/09/06 02:56:05;;;;;;;0.75;0.60;;;13.20;99.90;;;;;;4428303;32;20120;-78
2021/09/06 02:58:31;;;;;;;0.43;0.43;;;13.30;99.90;;;;;;4429694;32;20094;-78
2021/09/06 03:00:56;;;;;;;1.12;0.85;;;13.30;99.90;;;;;;4430047;32;20073;-78
2021/09/06 03:03:22;;;;;;;0.88;0.80;;;13.30;99.90;;;;;;4429895;32;20146;-78
2021/09/06 03:05:48;;;;;;;0.30;0.30;;;13.20;99.90;;;;;;4430667;32;20085;-78
2021/09/06 03:08:13;;;;;;;0.60;0.60;;;13.20;99.90;;;;;;4430444;32;20124;-78
2021/09/06 03:10:39;;;;;;;20.42;1.40;;;13.10;99.90;;;;;;4429745;32;20535;-78
2021/09/06 03:13:04;;;;;;;0.65;0.65;;;13.20;99.90;;;;;;4429498;32;20082;-78
2021/09/06 03:15:30;;;;;;;0.50;0.50;;;13.10;99.90;;;;;;4430089;32;20065;-78
2021/09/06 03:17:56;;;;;;;1.95;1.25;;;13.10;99.90;;;;;;4429178;32;20506;-77
2021/09/06 03:20:22;;;;;;;0.50;0.50;;;13.10;99.90;;;;;;4432070;32;20085;-77
2021/09/06 03:22:47;;;;;;;0.62;0.62;;;13.10;99.90;;;;;;4432339;32;20065;-79
2021/09/06 03:25:13;;;;;;;0.60;0.60;;;13.10;99.90;;;;;;4431878;32;20168;-78
2021/09/06 03:27:38;;;;;;;2.00;0.75;;;13.10;99.90;;;;;;4427200;32;20128;-78
2021/09/06 03:30:04;;;;;;;0.57;0.57;;;13.00;99.90;;;;;;4416487;32;20161;-78
2021/09/06 03:32:30;;;;;;;1.20;1.08;;;13.10;99.90;;;;;;4416873;32;20066;-79
2021/09/06 03:34:55;;;;;;;0.40;0.40;;;13.10;99.90;;;;;;4420239;32;20590;-78
2021/09/06 03:37:21;;;;;;;1.27;0.62;;;13.00;99.90;;;;;;4428393;32;20061;-78
2021/09/06 03:39:47;;;;;;;0.70;0.70;;;13.00;99.90;;;;;;4417551;32;20074;-78
2021/09/06 03:42:13;;;;;;;1.02;0.68;;;12.90;99.90;;;;;;4416622;32;20066;-78
2021/09/06 03:44:38;;;;;;;2.62;0.80;;;13.00;99.90;;;;;;4416393;32;20528;-78
2021/09/06 03:47:04;;;;;;;0.55;0.50;;;12.90;99.90;;;;;;4418203;32;20112;-78
2021/09/06 03:49:29;;;;;;;2.92;1.65;;;13.00;99.90;;;;;;4416228;32;20077;-78
2021/09/06 03:51:55;;;;;;;0.50;0.50;;;12.90;99.90;;;;;;4416133;32;20078;-78
2021/09/06 03:54:20;;;;;;;0.45;0.45;;;12.90;99.90;;;;;;4416602;32;20077;-78
2021/09/06 03:56:45;;;;;;;1.33;0.62;;;12.80;99.90;;;;;;4416636;32;20057;-78
2021/09/06 03:59:12;;;;;;;0.35;0.35;;;12.80;99.90;;;;;;4416013;32;20085;-78
2021/09/06 04:01:37;;;;;;;0.40;0.40;;;12.80;99.90;;;;;;4417224;32;20502;-78
2021/09/06 04:04:03;;;;;;;0.40;0.40;;;12.70;99.90;;;;;;4416797;32;20081;-78
2021/09/06 04:06:29;;;;;;;0.47;0.47;;;12.70;99.90;;;;;;4417145;32;20066;-78
2021/09/06 04:08:55;;;;;;;0.43;0.40;;;12.60;99.90;;;;;;4417298;32;20062;-79
2021/09/06 04:11:21;;;;;;;0.60;0.60;;;12.60;99.90;;;;;;4416934;32;20510;-78
2021/09/06 04:13:47;;;;;;;0.50;0.50;;;12.60;99.90;;;;;;4416693;32;20065;-78
2021/09/06 04:16:12;;;;;;;0.30;0.30;;;12.70;99.90;;;;;;4416755;32;20109;-77
2021/09/06 04:18:38;;;;;;;0.30;0.30;;;12.60;99.90;;;;;;4416358;32;20070;-77
2021/09/06 04:21:04;;;;;;;2.55;1.25;;;12.60;99.90;;;;;;4413533;32;20129;-78
2021/09/06 04:23:30;;;;;;;0.52;0.52;;;12.60;99.90;;;;;;4429970;32;20129;-78
2021/09/06 04:25:56;;;;;;;0.50;0.50;;;12.70;99.90;;;;;;4429281;32;20510;-78
2021/09/06 04:28:21;;;;;;;0.47;0.47;;;12.70;99.90;;;;;;4431234;32;20065;-78
2021/09/06 04:30:47;;;;;;;0.40;0.40;;;12.70;99.90;;;;;;4431591;32;20581;-78
2021/09/06 04:33:12;;;;;;;1.67;0.80;;;12.60;99.90;;;;;;4431990;32;20455;-78
2021/09/06 04:35:38;;;;;;;0.50;0.50;;;12.60;99.90;;;;;;4410283;32;20080;-78
2021/09/06 04:38:03;;;;;;;0.70;0.60;;;12.60;99.90;;;;;;4416732;32;20097;-79
2021/09/06 04:40:29;;;;;;;0.73;0.50;;;12.60;99.90;;;;;;4422578;32;20557;-79
2021/09/06 04:42:55;;;;;;;0.50;0.50;;;12.60;99.90;;;;;;4432016;32;20069;-77
2021/09/06 04:45:21;;;;;;;0.30;0.30;;;12.60;99.90;;;;;;4431230;32;20092;-77
2021/09/06 04:47:46;;;;;;;0.40;0.40;;;12.60;99.90;;;;;;4418111;32;20081;-78
2021/09/06 04:50:12;;;;;;;0.40;0.40;;;12.60;99.90;;;;;;4430594;32;20074;-78
2021/09/06 04:52:37;;;;;;;0.35;0.35;;;12.70;99.90;;;;;;4428917;32;20089;-77
2021/09/06 04:55:03;;;;;;;0.50;0.50;;;12.60;99.90;;;;;;4426030;32;20074;-78
2021/09/06 04:57:29;;;;;;;0.52;0.52;;;12.70;99.90;;;;;;4430739;32;20164;-78
2021/09/06 04:59:54;;;;;;;0.73;0.70;;;12.60;99.90;;;;;;4421513;32;20078;-77
2021/09/06 05:02:20;;;;;;;2.17;0.70;;;12.60;99.90;;;;;;4418961;32;20109;-78
2021/09/06 05:04:45;;;;;;;0.47;0.47;;;12.70;99.90;;;;;;4424834;32;20061;-80
2021/09/06 05:07:11;;;;;;;0.45;0.45;;;12.70;99.90;;;;;;4430461;32;20069;-78
2021/09/06 05:09:40;;;;;;;0.30;0.30;;;12.70;99.90;;;;;;4419694;32;20179;-79
2021/09/06 05:12:06;;;;;;;0.75;0.65;;;12.80;99.90;;;;;;4415870;32;20577;-78
2021/09/06 05:14:31;;;;;;;4.85;1.55;;;12.70;99.90;;;;;;4428645;32;20081;-78
2021/09/06 05:16:57;;;;;;;0.50;0.50;;;12.80;99.90;;;;;;4408272;32;20093;-77
2021/09/06 05:19:22;;;;;;;0.50;0.50;;;12.80;99.90;;;;;;4419109;32;20061;-77
2021/09/06 05:21:48;;;;;;;0.40;0.40;;;12.80;99.90;;;;;;4419471;32;20086;-77
2021/09/06 05:24:14;;;;;;;0.88;0.80;;;12.90;99.90;;;;;;4421709;32;20065;-77
2021/09/06 05:26:39;;;;;;;0.35;0.35;;;12.90;99.90;;;;;;4418387;32;20082;-78
2021/09/06 05:29:05;;;;;;;0.80;0.50;;;13.00;99.90;;;;;;4411706;32;20351;-78
2021/09/06 05:31:32;;;;;;;0.90;0.60;;;13.10;99.90;;;;;;4410685;32;20206;-78
2021/09/06 05:33:57;;;;;;;1.10;0.70;;;13.10;99.90;;;;;;4416712;32;20564;-77
2021/09/06 05:36:22;;;;;;;0.30;0.30;;;13.10;99.90;;;;;;4423049;32;20320;-78
2021/09/06 05:38:48;;;;;;;0.37;0.37;;;13.20;99.90;;;;;;4416804;32;20419;-78
2021/09/06 05:41:15;;;;;;;0.70;0.70;;;13.20;99.90;;;;;;4427938;32;20111;-78
2021/09/06 05:43:41;;;;;;;20.83;1.55;;;13.30;99.90;;;;;;4423618;32;20080;-78
2021/09/06 05:46:06;;;;;;;0.47;0.47;;;13.30;99.90;;;;;;4423225;32;20089;-78
2021/09/06 05:48:32;;;;;;;0.52;0.52;;;13.30;99.90;;;;;;4425914;32;20338;-78
2021/09/06 05:50:57;;;;;;;0.37;0.37;;;13.30;99.90;;;;;;4422278;32;20487;-78
2021/09/06 05:53:23;;;;;;;0.80;0.60;;;13.40;99.90;;;;;;4422958;32;20061;-78
2021/09/06 05:55:48;;;;;;;0.37;0.37;;;13.40;99.90;;;;;;4422560;32;20158;-78
2021/09/06 05:58:14;;;;;;;0.50;0.50;;;13.40;99.90;;;;;;4419368;32;20089;-79
2021/09/06 06:00:40;;;;;;;0.37;0.37;;;13.50;99.90;;;;;;4418337;32;20089;-80
2021/09/06 06:03:10;;;;;;;0.68;0.60;;;13.50;99.90;;;;;;4420563;32;20072;-82
2021/09/06 06:05:36;;;;;;;0.30;0.30;;;13.60;99.90;;;;;;4421845;32;20113;-81
2021/09/06 06:08:01;;;;;;;0.43;0.43;;;13.60;99.90;;;;;;4425020;32;20086;-81
2021/09/06 06:10:27;;;;;;;0.43;0.43;;;13.70;99.90;;;;;;4424704;32;20088;-80
2021/09/06 06:12:54;;;;;;;0.55;0.55;;;13.80;99.90;;;;;;4421910;32;20457;-80
2021/09/06 06:15:20;;;;;;;0.45;0.45;;;13.80;99.90;;;;;;4425607;32;20466;-79
2021/09/06 06:17:45;;;;;;;0.47;0.47;;;13.90;99.90;;;;;;4414992;32;20098;-77
2021/09/06 06:20:12;;;;;;;0.77;0.77;;;14.00;99.90;;;;;;4416219;32;20073;-78
2021/09/06 06:22:37;;;;;;;0.45;0.45;;;14.10;99.90;;;;;;4413055;32;143092;-78
2021/09/06 06:25:03;;;;;;;5.65;0.68;;;14.10;99.90;;;;;;4415907;32;20542;-78
2021/09/06 06:27:29;;;;;;;0.60;0.60;;;14.20;99.90;;;;;;4413090;32;20089;-78
2021/09/06 06:29:54;;;;;;;0.75;0.75;;;14.20;99.90;;;;;;4417594;32;20176;-77
2021/09/06 06:32:20;;;;;;;0.60;0.60;;;14.30;99.90;;;;;;4412308;32;20061;-78
2021/09/06 06:34:45;;;;;;;0.45;0.45;;;14.30;99.90;;;;;;4411501;32;20118;-78
2021/09/06 06:37:11;;;;;;;0.62;0.62;;;14.40;99.90;;;;;;4412815;32;20361;-80
2021/09/06 06:39:37;;;;;;;0.50;0.50;;;14.50;99.90;;;;;;4443405;26;20517;-68
2021/09/06 06:42:03;;;;;;;0.47;0.47;;;14.50;99.90;;;;;;4408908;32;20179;-67
2021/09/06 06:44:28;;;;;;;0.57;0.57;;;14.60;99.90;;;;;;4417153;32;20201;-69
2021/09/06 06:46:54;;;;;;;0.70;0.70;;;14.70;99.90;;;;;;4409328;32;20595;-69
2021/09/06 06:49:20;;;;;;;0.68;0.65;;;14.70;99.90;;;;;;4415333;32;20081;-69
2021/09/06 06:51:45;;;;;;;0.65;0.57;;;14.70;99.90;;;;;;4417228;32;20093;-68
2021/09/06 06:54:11;;;;;;;0.35;0.35;;;14.80;99.90;;;;;;4411097;32;20535;-67
2021/09/06 06:56:36;;;;;;;0.40;0.40;;;14.70;99.90;;;;;;4395087;32;20456;-68
2021/09/06 06:59:02;;;;;;;0.40;0.40;;;14.70;99.90;;;;;;4394015;32;20086;-68
2021/09/06 07:01:27;;;;;;;0.52;0.52;;;14.70;99.90;;;;;;4395228;32;20130;-68
2021/09/06 07:03:53;;;;;;;0.50;0.50;;;14.70;99.90;;;;;;4402220;32;20116;-67
2021/09/06 07:06:18;;;;;;;0.40;0.40;;;14.70;99.90;;;;;;4397472;32;20081;-68
2021/09/06 07:08:44;;;;;;;0.40;0.40;;;14.70;99.90;;;;;;4398485;32;20097;-68
2021/09/06 07:11:09;;;;;;;0.30;0.30;;;14.90;99.90;;;;;;4398809;32;20507;-68
2021/09/06 07:13:35;;;;;;;0.98;0.55;;;14.90;99.90;;;;;;4398732;32;20070;-68
2021/09/06 07:16:00;;;;;;;0.40;0.40;;;15.00;99.90;;;;;;4399713;32;20102;-68
2021/09/06 07:18:26;;;;;;;0.40;0.40;;;15.10;99.90;;;;;;4399017;32;20082;-67
2021/09/06 07:20:51;;;;;;;0.70;0.70;;;15.10;99.90;;;;;;4399634;32;20074;-67
2021/09/06 07:23:17;;;;;;;0.43;0.43;;;15.20;99.90;;;;;;4393043;32;20142;-70
2021/09/06 07:25:42;;;;;;;1.20;0.60;;;15.10;99.90;;;;;;4396923;32;20090;-69
2021/09/06 07:28:08;;;;;;;0.52;0.52;;;15.20;99.90;;;;;;4404719;27;20077;-76
2021/09/06 07:30:34;;;;;;;0.60;0.60;;;15.20;99.90;;;;;;4395485;32;20153;-76
2021/09/06 07:33:02;;;;;;;0.37;0.37;;;15.30;99.90;;;;;;4401317;32;20118;-76
2021/09/06 07:37:08;;;;;;;0.43;0.43;;;15.20;99.90;;;;;;4409652;32;20121;-76
2021/09/06 07:38:55;;;;;;;0.57;0.40;;;15.30;99.90;;;;;;4405628;32;20534;-75
2021/09/06 07:41:21;;;;;;;0.30;0.30;;;15.50;99.90;;;;;;4415092;32;20089;-76
2021/09/06 07:43:47;;;;;;;9.23;0.77;;;15.50;99.90;;;;;;4410294;32;20077;-75
2021/09/06 07:46:13;;;;;;;0.50;0.50;;;15.40;99.90;;;;;;4406133;32;20073;-76
2021/09/06 07:48:39;;;;;;;0.50;0.50;;;15.50;99.90;;;;;;4399858;27;20109;-66
2021/09/06 07:51:05;;;;;;;0.80;0.80;;;15.60;99.90;;;;;;4362905;32;20089;-65
2021/09/06 07:53:30;;;;;;;0.60;0.52;;;15.80;99.90;;;;;;4375177;32;20073;-65
2021/09/06 07:55:56;;;;;;;0.40;0.40;;;15.80;99.90;;;;;;4382182;32;20159;-65
2021/09/06 07:58:21;;;;;;;0.45;0.45;;;15.80;99.90;;;;;;4386223;32;20538;-65
2021/09/06 08:00:47;;;;;;;1.05;0.82;;;16.00;99.90;;;;;;4380117;32;20066;-65
2021/09/06 08:03:13;;;;;;;0.62;0.62;;;16.00;99.90;;;;;;4385015;32;20074;-65
2021/09/06 08:05:38;;;;;;;0.55;0.55;;;16.10;99.90;;;;;;4387487;32;20086;-65
2021/09/06 08:08:04;;;;;;;0.55;0.55;;;16.10;99.90;;;;;;4380242;32;20069;-65
2021/09/06 08:10:29;;;;;;;0.47;0.47;;;16.20;99.90;;;;;;4384353;32;20102;-66
2021/09/06 08:12:55;;;;;;;0.70;0.70;;;16.30;99.90;;;;;;4382525;32;20543;-66
2021/09/06 08:15:20;;;;;;;0.60;0.60;;;16.40;99.90;;;;;;4362568;32;20159;-67
2021/09/06 08:17:46;;;;;;;0.50;0.50;;;16.40;99.90;;;;;;4380634;32;20086;-66
2021/09/06 08:20:14;;;;;;;0.40;0.40;;;16.60;99.90;;;;;;4378225;32;20102;-66
2021/09/06 08:22:40;;;;;;;0.50;0.50;;;16.60;99.90;;;;;;4379530;32;20507;-66
2021/09/06 08:25:08;;;;;;;0.65;0.57;;;16.70;99.90;;;;;;4380092;32;20094;-65
2021/09/06 08:27:34;;;;;;;1.87;0.65;;;16.80;99.90;;;;;;4360958;32;20494;-66
2021/09/06 08:30:00;;;;;;;0.40;0.40;;;16.90;99.90;;;;;;4380153;32;20066;-66
2021/09/06 08:32:25;;;;;;;0.90;0.88;;;17.00;99.90;;;;;;4368635;32;20083;-66
2021/09/06 08:34:52;;;;;;;2.33;0.93;;;17.00;99.90;;;;;;4365620;32;20122;-66
2021/09/06 08:37:19;;;;;;;5.12;0.73;;;17.10;99.90;;;;;;4361862;32;20074;-66
2021/09/06 08:39:44;;;;;;;5.87;0.70;;;17.20;99.90;;;;;;4359739;32;21016;-65
2021/09/06 08:42:10;;;;;;;1.65;0.68;;;17.30;99.90;;;;;;4362702;32;20430;-66
2021/09/06 08:44:36;;;;;;;0.50;0.32;;;17.30;99.90;;;;;;4363709;32;20162;-66
2021/09/06 08:47:02;;;;;;;0.88;0.82;;;17.40;99.90;;;;;;4365386;32;20154;-66
2021/09/06 08:49:27;;;;;;;0.57;0.55;;;17.50;99.90;;;;;;4362121;32;20101;-66
2021/09/06 08:51:53;;;;;;;0.60;0.60;;;17.60;99.90;;;;;;4368454;32;20090;-66
2021/09/06 08:54:18;;;;;;;0.30;0.30;;;17.70;99.90;;;;;;4363177;32;20083;-67
2021/09/06 08:56:47;;;;;;;1.60;0.80;;;17.80;99.90;;;;;;4364291;32;20398;-66
2021/09/06 08:59:13;;;;;;;0.47;0.40;;;18.00;99.90;;;;;;4359072;32;20386;-65
2021/09/06 09:01:43;;;;;;;0.95;0.47;;;18.10;99.90;;;;;;4368064;32;20066;-65
2021/09/06 09:04:16;;;;;;;0.43;0.43;;;18.20;99.90;;;;;;4371442;32;20127;-66
2021/09/06 09:06:42;;;;;;;4.25;0.70;;;18.20;99.90;;;;;;4371289;32;20066;-66
2021/09/06 09:09:07;;;;;;;0.90;0.75;;;18.20;99.90;;;;;;4359498;32;20095;-67
2021/09/06 09:11:34;;;;;;;1.60;0.65;;;18.20;99.90;;;;;;4358865;32;20567;-67
2021/09/06 09:14:15;;;;;;;0.50;0.50;;;18.30;99.90;;;;;;4358635;32;20087;-66
2021/09/06 09:16:41;;;;;;;0.40;0.40;;;18.60;99.90;;;;;;4365611;32;20426;-66
2021/09/06 09:19:07;;;;;;;0.45;0.43;;;18.80;99.90;;;;;;4358403;32;20094;-66
2021/09/06 09:21:33;;;;;;;0.75;0.75;;;18.80;99.90;;;;;;4361752;32;20082;-66
2021/09/06 09:24:01;;;;;;;2.72;0.62;;;19.00;99.90;;;;;;4360385;32;20090;-66
2021/09/06 09:26:28;;;;;;;0.70;0.70;;;19.00;99.90;;;;;;4365932;32;21072;-66
2021/09/06 09:28:54;;;;;;;0.43;0.43;;;19.30;99.90;;;;;;4358751;32;20109;-65
2021/09/06 09:31:21;;;;;;;0.47;0.47;;;19.60;99.90;;;;;;4358341;32;20164;-65
2021/09/06 09:33:49;;;;;;;0.50;0.50;;;19.70;99.90;;;;;;4370934;32;20884;-65
2021/09/06 09:36:30;;;;;;;0.50;0.50;;;19.70;99.90;;;;;;4366770;32;20120;-65
2021/09/06 09:39:14;;;;;;;0.30;0.30;;;19.90;99.90;;;;;;4370125;32;20095;-65
2021/09/06 09:41:41;;;;;;;0.40;0.40;;;19.90;99.90;;;;;;4367363;32;20138;-65
2021/09/06 09:44:09;;;;;;;0.30;0.30;;;20.00;99.90;;;;;;4361957;32;20086;-65
2021/09/06 09:46:36;;;;;;;0.45;0.45;;;20.10;99.90;;;;;;4363965;32;20546;-66
2021/09/06 09:49:18;;;;;;;0.75;0.47;;;20.20;99.90;;;;;;4362125;32;20190;-66
2021/09/06 09:51:43;;;;;;;0.40;0.40;;;20.20;99.90;;;;;;4360965;32;20081;-66
2021/09/06 09:54:10;;;;;;;1.45;0.80;;;20.20;99.90;;;;;;4371930;32;20087;-66
2021/09/06 09:56:35;;;;;;;2.55;1.08;;;20.40;99.90;;;;;;4368244;32;20536;-66
2021/09/06 09:59:01;;;;;;;1.55;0.95;;;20.40;99.90;;;;;;4360828;32;20098;-65
2021/09/06 10:01:31;;;;;;;1.95;0.60;;;20.40;99.90;;;;;;4368648;32;20074;-66
2021/09/06 10:03:59;;;;;;;0.30;0.30;;;20.60;99.90;;;;;;4366241;32;20206;-66
2021/09/06 10:06:26;;;;;;;2.40;1.05;;;20.60;99.90;;;;;;4366885;32;20090;-65
2021/09/06 10:08:52;;;;;;;2.67;1.20;;;20.70;99.90;;;;;;4365247;32;20091;-65
2021/09/06 10:11:17;;;;;;;0.40;0.40;;;20.70;99.90;;;;;;4370683;32;20492;-65
2021/09/06 10:13:43;;;;;;;2.33;0.82;;;21.00;99.90;;;;;;4368842;32;20086;-65
2021/09/06 10:16:10;;;;;;;0.37;0.37;;;21.20;99.90;;;;;;4362901;32;20192;-65
2021/09/06 10:18:38;;;;;;;0.37;0.37;;;21.50;99.90;;;;;;4365865;32;20082;-65
2021/09/06 10:21:16;;;;;;;1.37;0.50;;;21.70;99.90;;;;;;4374298;32;20210;-66
2021/09/06 10:23:43;;;;;;;0.88;0.60;;;21.60;99.90;;;;;;4368730;32;20606;-65
2021/09/06 10:26:09;;;;;;;0.70;0.65;;;21.70;99.90;;;;;;4357653;32;20070;-65
2021/09/06 10:28:35;;;;;;;0.25;0.25;;;21.70;99.90;;;;;;4370406;32;20087;-66
2021/09/06 10:31:02;;;;;;;0.82;0.75;;;21.90;99.90;;;;;;4373480;32;20074;-65
2021/09/06 10:33:31;;;;;;;0.43;0.43;;;21.80;99.90;;;;;;4373427;32;20073;-65
2021/09/06 10:36:19;;;;;;;0.30;0.30;;;21.90;99.90;;;;;;4367235;32;20074;-66
2021/09/06 10:38:48;;;;;;;0.73;0.70;;;22.10;99.90;;;;;;4359013;32;20198;-65
2021/09/06 10:41:17;;;;;;;0.55;0.55;;;22.30;99.90;;;;;;4371775;32;20095;-65
2021/09/06 10:43:49;;;;;;;0.35;0.35;;;22.60;99.90;;;;;;4370553;32;20070;-66
2021/09/06 10:46:15;;;;;;;2.00;1.25;;;22.60;99.90;;;;;;4370492;32;20146;-65
2021/09/06 10:48:41;;;;;;;0.43;0.43;;;22.60;99.90;;;;;;4367210;32;20153;-65
2021/09/06 10:51:09;;;;;;;1.17;0.50;;;22.50;99.90;;;;;;4365062;32;20074;-66
2021/09/06 10:53:37;;;;;;;1.27;0.43;;;22.70;99.90;;;;;;4363413;32;20137;-66
2021/09/06 10:56:05;;;;;;;9.95;0.55;;;22.50;99.90;;;;;;4363648;32;20125;-66
2021/09/06 10:58:30;;;;;;;0.50;0.50;;;22.60;99.90;;;;;;4363397;32;20082;-66
2021/09/06 11:00:58;;;;;;;0.40;0.40;;;22.70;99.90;;;;;;4369039;32;20082;-66
2021/09/06 11:03:28;;;;;;;0.62;0.62;;;23.00;99.90;;;;;;4366843;32;20082;-66
2021/09/06 11:05:56;;;;;;;3.45;0.50;;;23.30;99.90;;;;;;4371286;32;20564;-66
2021/09/06 11:08:27;;;;;;;2.05;0.55;;;23.60;99.90;;;;;;4368313;32;20078;-66
2021/09/06 11:10:54;;;;;;;0.25;0.25;;;23.60;99.90;;;;;;4370627;32;20079;-66
2021/09/06 11:13:20;;;;;;;1.65;0.82;;;24.00;99.90;;;;;;4359625;32;20799;-66
2021/09/06 11:15:45;;;;;;;1.50;0.55;;;24.10;99.90;;;;;;4362431;32;20073;-66
2021/09/06 11:18:11;;;;;;;2.08;1.30;;;24.20;99.90;;;;;;4363944;32;20146;-66
2021/09/06 11:20:38;;;;;;;0.80;0.68;;;24.30;99.90;;;;;;4371255;32;20503;-67
2021/09/06 11:23:07;;;;;;;0.52;0.50;;;24.50;99.90;;;;;;4365508;32;20101;-66
2021/09/06 11:25:34;;;;;;;0.20;0.20;;;24.40;99.90;;;;;;4364614;32;20074;-66
2021/09/06 11:28:19;;;;;;;1.05;0.68;;;24.60;99.40;;;;;;4370370;32;20086;-66
2021/09/06 11:30:46;;;;;;;0.40;0.40;;;25.20;98.80;;;;;;4364975;32;20687;-66
2021/09/06 11:33:13;;;;;;;0.95;0.70;;;25.50;97.90;;;;;;4368826;32;20078;-65
2021/09/06 11:35:40;;;;;;;0.20;0.20;;;25.30;98.70;;;;;;4359958;32;20113;-65
2021/09/06 11:38:07;;;;;;;0.30;0.30;;;25.20;98.70;;;;;;4365011;32;20542;-66
2021/09/06 11:40:34;;;;;;;0.50;0.50;;;24.90;98.70;;;;;;4370269;32;20059;-66
2021/09/06 11:43:00;;;;;;;0.37;0.30;;;24.80;97.40;;;;;;4367760;32;20094;-66
2021/09/06 11:45:26;;;;;;;1.25;0.40;;;24.80;97.70;;;;;;4363540;32;20917;-65
2021/09/06 11:47:58;;;;;;;0.35;0.35;;;24.90;97.30;;;;;;4359499;32;20691;-66
2021/09/06 11:50:28;;;;;;;1.98;0.50;;;25.10;97.60;;;;;;4366858;32;20179;-65
2021/09/06 11:53:00;;;;;;;0.17;0.17;;;25.30;97.20;;;;;;4363272;32;20078;-66
2021/09/06 11:55:25;;;;;;;0.37;0.20;;;25.50;96.80;;;;;;4372366;32;20114;-66
2021/09/06 11:57:51;;;;;;;0.30;0.30;;;25.50;96.30;;;;;;4370454;32;20253;-67
2021/09/06 12:00:18;;;;;;;0.20;0.20;;;25.80;96.20;;;;;;4361257;32;21081;-66
2021/09/06 12:02:49;;;;;;;0.73;0.37;;;25.50;96.50;;;;;;4362807;32;20392;-66
2021/09/06 12:05:15;;;;;;;0.30;0.30;;;25.50;97.00;;;;;;4366038;32;20202;-65
2021/09/06 12:07:46;;;;;;;0.37;0.28;;;25.60;96.50;;;;;;4363301;32;20149;-66
2021/09/06 12:10:24;;;;;;;2.25;0.50;;;25.50;95.70;;;;;;4366654;32;20455;-66
2021/09/06 12:12:58;;;;;;;0.20;0.20;;;25.40;95.70;;;;;;4369319;32;20094;-66
2021/09/06 12:15:24;;;;;;;1.25;0.37;;;25.20;96.10;;;;;;4359572;32;20212;-66
2021/09/06 12:17:49;;;;;;;0.52;0.40;;;24.80;95.20;;;;;;4368271;32;20107;-66
2021/09/06 12:20:15;;;;;;;0.35;0.35;;;24.30;97.00;;;;;;4372079;32;20090;-66
2021/09/06 12:22:40;;;;;;;0.30;0.30;;;24.10;97.00;;;;;;4355244;32;20230;-66
2021/09/06 12:25:07;;;;;;;0.47;0.30;;;24.10;97.00;;;;;;4370799;32;20083;-66
2021/09/06 12:27:34;;;;;;;0.30;0.30;;;24.10;96.70;;;;;;4369454;32;20129;-66
2021/09/06 12:30:00;;;;;;;0.88;0.52;;;24.10;96.20;;;;;;4363800;32;20134;-66
2021/09/06 12:32:27;;;;;;;0.52;0.52;;;24.30;95.80;;;;;;4361366;32;20083;-65
2021/09/06 12:34:53;;;;;;;1.77;0.50;;;24.60;96.20;;;;;;4368144;32;20453;-66
2021/09/06 12:37:22;;;;;;;1.33;0.13;;;25.10;95.20;;;;;;4368208;32;20137;-66
2021/09/06 12:39:47;;;;;;;0.90;0.40;;;25.10;95.50;;;;;;4368646;32;20156;-66
2021/09/06 12:42:13;;;;;;;0.25;0.25;;;24.90;95.10;;;;;;4369140;32;20075;-66